Time;durP1;ratioP1;P1;durP2;ratioP2;P2;SDS_P1;SDS_P2;PMS_P1;PMS_P2;Temp;Humidity;BMP_temperature;BMP_pressure;BME280_temperature;BME280_humidity;BME280_pressure;Samples;Min_cycle;Max_cycle;Signal;HPM_P1;HPM_P2
2021/11/24 06:54:24;;;;;;;27.48;12.98;;;2.20;84.50;;;;;;5062468;28;20518;-66
2021/11/24 06:56:50;;;;;;;35.35;14.70;;;1.60;85.40;;;;;;5052429;28;20017;-66
2021/11/24 06:59:17;;;;;;;29.80;14.88;;;1.60;86.00;;;;;;5049696;28;20036;-66
2021/11/24 07:01:44;;;;;;;29.58;14.40;;;1.60;86.60;;;;;;5045293;28;20386;-66
2021/11/24 07:04:10;;;;;;;34.60;15.68;;;1.70;86.60;;;;;;5048505;28;20440;-66
2021/11/24 07:06:36;;;;;;;34.83;16.35;;;1.70;86.70;;;;;;5050418;28;20037;-65
2021/11/24 07:09:03;;;;;;;34.65;17.23;;;1.80;86.80;;;;;;5050255;28;20090;-65
2021/11/24 07:11:30;;;;;;;36.95;16.58;;;1.80;86.90;;;;;;5046528;28;20035;-66
2021/11/24 07:13:57;;;;;;;38.08;18.73;;;1.90;86.80;;;;;;5054627;28;20041;-65
2021/11/24 07:16:23;;;;;;;46.42;21.67;;;1.90;86.80;;;;;;5044672;28;20032;-65
2021/11/24 07:18:49;;;;;;;35.65;17.25;;;2.00;86.80;;;;;;5051238;28;20033;-65
2021/11/24 07:21:15;;;;;;;32.67;17.23;;;2.00;86.70;;;;;;5056963;28;20573;-66
2021/11/24 07:23:42;;;;;;;39.47;17.38;;;2.10;86.60;;;;;;5053204;28;20396;-66
2021/11/24 07:26:08;;;;;;;31.65;15.45;;;2.10;86.40;;;;;;5045468;28;20535;-65
2021/11/24 07:28:34;;;;;;;32.90;16.52;;;2.20;86.30;;;;;;5030569;28;20060;-65
2021/11/24 07:31:00;;;;;;;34.40;16.38;;;2.20;86.10;;;;;;5038757;28;20025;-66
2021/11/24 07:33:25;;;;;;;38.58;17.88;;;2.30;85.90;;;;;;5041267;28;20408;-67
2021/11/24 07:35:51;;;;;;;44.47;18.90;;;2.30;85.90;;;;;;5046024;28;20025;-67
2021/11/24 07:38:17;;;;;;;46.42;19.70;;;2.30;86.20;;;;;;5049706;28;20030;-66
2021/11/24 07:40:44;;;;;;;43.92;18.70;;;2.40;86.40;;;;;;5042726;28;20027;-65
2021/11/24 07:43:09;;;;;;;48.95;19.52;;;2.50;86.50;;;;;;5041007;28;20021;-65
2021/11/24 07:45:35;;;;;;;48.97;19.55;;;2.50;86.90;;;;;;5031256;28;20038;-66
2021/11/24 07:48:01;;;;;;;49.40;19.92;;;2.60;87.50;;;;;;5039104;28;20033;-66
2021/11/24 07:50:27;;;;;;;53.30;20.73;;;2.70;88.50;;;;;;5042191;28;20021;-65
2021/11/24 07:52:53;;;;;;;49.38;19.88;;;2.80;89.10;;;;;;5040742;28;20068;-65
2021/11/24 07:55:19;;;;;;;46.47;20.38;;;2.90;89.00;;;;;;5054309;28;20565;-66
2021/11/24 07:57:45;;;;;;;43.22;19.15;;;3.20;89.30;;;;;;5059390;28;20036;-66
2021/11/24 08:00:11;;;;;;;37.70;17.63;;;3.60;89.50;;;;;;5047630;28;20833;-66
2021/11/24 08:02:37;;;;;;;42.40;18.63;;;4.00;88.70;;;;;;5056514;28;20059;-66
2021/11/24 08:05:06;;;;;;;36.05;17.48;;;4.30;87.80;;;;;;5047545;28;20044;-66
2021/11/24 08:07:32;;;;;;;35.38;17.70;;;5.10;86.40;;;;;;5029539;28;20038;-68
2021/11/24 08:09:58;;;;;;;33.40;17.15;;;6.00;83.90;;;;;;5037394;28;20033;-67
2021/11/24 08:12:24;;;;;;;30.48;16.25;;;6.70;81.10;;;;;;5037992;28;20519;-67
2021/11/24 08:14:52;;;;;;;29.30;17.45;;;7.40;78.30;;;;;;5036871;28;20108;-68
2021/11/24 08:17:18;;;;;;;28.30;16.63;;;8.10;76.10;;;;;;5041385;28;20036;-67
2021/11/24 08:19:43;;;;;;;27.42;16.08;;;8.80;73.60;;;;;;5030688;28;20022;-67
2021/11/24 08:22:09;;;;;;;26.48;16.33;;;9.40;71.00;;;;;;5033487;28;20013;-67
2021/11/24 08:24:35;;;;;;;27.60;17.05;;;10.10;69.00;;;;;;5042254;28;20037;-67
2021/11/24 08:27:04;;;;;;;26.60;16.65;;;10.70;67.20;;;;;;5038298;28;20022;-67
2021/11/24 08:29:30;;;;;;;24.05;16.75;;;11.20;64.30;;;;;;5035096;28;20044;-67
2021/11/24 08:31:56;;;;;;;25.80;16.63;;;11.70;62.90;;;;;;5034134;28;20025;-67
2021/11/24 08:34:22;;;;;;;25.52;16.88;;;12.30;61.60;;;;;;5031541;28;20186;-67
2021/11/24 08:36:50;;;;;;;26.92;17.77;;;12.90;59.60;;;;;;5044298;28;20036;-67
2021/11/24 08:39:16;;;;;;;32.47;20.80;;;13.40;57.50;;;;;;5033734;28;20017;-67
2021/11/24 08:41:43;;;;;;;29.65;18.90;;;13.90;55.30;;;;;;5032753;28;20029;-67
2021/11/24 08:44:10;;;;;;;24.45;17.23;;;14.40;54.60;;;;;;5032847;28;20052;-67
2021/11/24 08:46:35;;;;;;;23.83;17.60;;;14.90;53.80;;;;;;5061436;28;20026;-68
2021/11/24 08:49:02;;;;;;;22.83;17.27;;;15.40;53.00;;;;;;5035811;28;20029;-66
2021/11/24 08:51:27;;;;;;;23.77;16.88;;;15.70;51.90;;;;;;5033174;28;20032;-67
2021/11/24 08:53:53;;;;;;;21.95;17.10;;;16.10;50.90;;;;;;5034213;28;20045;-68
2021/11/24 08:56:19;;;;;;;24.98;17.30;;;16.60;49.40;;;;;;5032296;28;20025;-67
2021/11/24 08:58:45;;;;;;;24.08;18.05;;;17.20;48.30;;;;;;5030152;28;20485;-67
2021/11/24 09:01:11;;;;;;;25.60;18.80;;;17.70;46.60;;;;;;5033290;28;20056;-67
2021/11/24 09:03:36;;;;;;;23.88;19.27;;;18.10;45.50;;;;;;5035051;28;20038;-67
2021/11/24 09:06:04;;;;;;;22.48;20.08;;;18.50;44.10;;;;;;5034062;28;20036;-67
2021/11/24 09:08:30;;;;;;;24.30;20.45;;;18.90;43.10;;;;;;5025115;28;20022;-67
2021/11/24 09:10:56;;;;;;;25.23;22.55;;;19.30;42.20;;;;;;5028311;28;20112;-67
2021/11/24 09:13:22;;;;;;;24.10;21.60;;;19.60;40.90;;;;;;5013535;28;20137;-67
2021/11/24 09:15:48;;;;;;;22.42;17.55;;;19.90;39.40;;;;;;5026959;28;20041;-67
2021/11/24 09:18:14;;;;;;;24.00;18.02;;;18.20;40.90;;;;;;5018203;28;20025;-67
2021/11/24 09:20:41;;;;;;;24.40;17.38;;;16.50;44.00;;;;;;5016605;28;20030;-67
2021/11/24 09:23:06;;;;;;;26.73;17.67;;;15.10;47.10;;;;;;5016653;28;20038;-67
2021/11/24 09:25:48;;;;;;;26.35;18.30;;;14.00;49.90;;;;;;5012107;28;20084;-67
2021/11/24 09:28:14;;;;;;;27.92;16.77;;;13.10;52.10;;;;;;5023826;28;20037;-67
2021/11/24 09:30:41;;;;;;;25.50;16.50;;;12.30;54.60;;;;;;5016392;28;20144;-67
2021/11/24 09:33:07;;;;;;;27.80;16.80;;;11.70;56.40;;;;;;5015914;28;20720;-67
2021/11/24 09:35:34;;;;;;;26.63;16.40;;;11.20;58.00;;;;;;5017974;28;20044;-67
2021/11/24 09:38:01;;;;;;;25.40;15.85;;;10.90;59.60;;;;;;5025675;28;20404;-67
2021/11/24 09:40:27;;;;;;;23.75;14.75;;;10.70;61.10;;;;;;5029222;28;20056;-67
2021/11/24 09:42:59;;;;;;;25.27;16.75;;;10.70;62.90;;;;;;5027405;28;20076;-67
2021/11/24 09:45:26;;;;;;;25.05;19.17;;;11.70;61.10;;;;;;5039217;28;20049;-67
2021/11/24 09:47:55;;;;;;;24.00;19.40;;;13.90;56.50;;;;;;5036670;28;20108;-67
2021/11/24 09:50:23;;;;;;;52.67;46.88;;;15.90;51.30;;;;;;5031525;28;20115;-66
2021/11/24 09:52:50;;;;;;;139.02;110.63;;;16.60;47.70;;;;;;5029392;28;20042;-67
2021/11/24 09:55:16;;;;;;;132.65;101.63;;;15.20;49.10;;;;;;5040305;28;20039;-67
2021/11/24 09:57:42;;;;;;;34.00;27.05;;;14.50;50.90;;;;;;5030556;28;20101;-67
2021/11/24 10:00:08;;;;;;;26.55;22.10;;;14.70;51.40;;;;;;5036809;28;20036;-67
2021/11/24 10:02:36;;;;;;;25.42;21.02;;;17.10;47.30;;;;;;5041312;28;20049;-67
2021/11/24 10:05:02;;;;;;;29.60;26.60;;;18.90;43.40;;;;;;5031626;28;20060;-67
2021/11/24 10:07:28;;;;;;;26.83;24.13;;;20.20;40.50;;;;;;5042313;28;20040;-67
2021/11/24 10:09:54;;;;;;;32.90;29.90;;;21.50;38.10;;;;;;5035855;28;20026;-66
2021/11/24 10:12:20;;;;;;;27.00;24.30;;;22.40;35.30;;;;;;5027085;28;20029;-67
2021/11/24 10:14:45;;;;;;;39.85;36.28;;;23.20;33.60;;;;;;5031379;28;20487;-67
2021/11/24 10:17:22;;;;;;;28.85;26.15;;;23.90;32.10;;;;;;5030872;28;20031;-67
2021/11/24 10:20:08;;;;;;;43.50;39.72;;;24.30;30.70;;;;;;5029817;28;20501;-67
2021/11/24 10:22:35;;;;;;;28.80;26.00;;;24.80;29.90;;;;;;5025239;28;20502;-67
2021/11/24 10:25:09;;;;;;;33.33;30.33;;;25.30;29.80;;;;;;5034199;28;20033;-66
2021/11/24 10:27:39;;;;;;;44.80;40.40;;;25.80;28.80;;;;;;5037863;28;20025;-67
2021/11/24 10:30:07;;;;;;;56.42;51.08;;;26.30;28.50;;;;;;5033012;28;20025;-67
2021/11/24 10:32:33;;;;;;;27.08;24.55;;;26.80;27.80;;;;;;5031086;28;20021;-67
2021/11/24 10:34:59;;;;;;;22.02;19.73;;;27.10;27.30;;;;;;5030942;28;20025;-67
2021/11/24 10:37:25;;;;;;;24.00;21.77;;;27.40;26.80;;;;;;5027726;28;20057;-67
2021/11/24 10:40:03;;;;;;;19.63;17.83;;;27.70;26.50;;;;;;5034705;28;20492;-67
2021/11/24 10:42:38;;;;;;;21.60;19.50;;;28.10;25.80;;;;;;5032260;28;20021;-67
2021/11/24 10:45:11;;;;;;;32.05;28.90;;;28.50;25.50;;;;;;5030397;28;20121;-67
2021/11/24 10:47:49;;;;;;;60.88;55.92;;;28.80;24.50;;;;;;5030735;28;20025;-67
2021/11/24 10:50:34;;;;;;;30.23;27.42;;;29.00;24.30;;;;;;5031222;28;20032;-67
2021/11/24 10:53:00;;;;;;;18.50;16.60;;;29.50;24.40;;;;;;5030951;28;20037;-67
2021/11/24 10:55:30;;;;;;;23.88;21.75;;;29.80;23.60;;;;;;5026270;28;20046;-67
2021/11/24 10:58:01;;;;;;;21.80;19.83;;;29.80;23.00;;;;;;5035264;28;20026;-67
2021/11/24 11:00:47;;;;;;;19.17;17.38;;;30.00;23.00;;;;;;5033356;28;21045;-67
2021/11/24 11:03:13;;;;;;;34.35;31.48;;;30.30;23.10;;;;;;5032280;28;20064;-67
2021/11/24 11:05:42;;;;;;;25.48;23.27;;;30.50;22.60;;;;;;5030599;28;20463;-67
2021/11/24 11:08:10;;;;;;;21.17;19.27;;;30.60;22.20;;;;;;5030266;28;20037;-67
2021/11/24 11:10:44;;;;;;;24.55;22.45;;;30.60;22.10;;;;;;5027450;28;20048;-67
2021/11/24 11:13:13;;;;;;;20.98;19.08;;;30.80;21.90;;;;;;5030286;28;20029;-67
2021/11/24 11:15:38;;;;;;;22.45;20.50;;;31.10;21.90;;;;;;5032197;28;20022;-67
2021/11/24 11:18:11;;;;;;;22.23;20.33;;;31.30;21.60;;;;;;5030482;28;20030;-67
2021/11/24 11:20:41;;;;;;;25.77;23.60;;;31.40;21.10;;;;;;5030127;28;20021;-67
2021/11/24 11:23:32;;;;;;;26.02;23.73;;;31.60;21.10;;;;;;5030243;28;20078;-67
2021/11/24 11:26:03;;;;;;;34.85;31.58;;;31.70;20.90;;;;;;5031792;28;20039;-67
2021/11/24 11:28:38;;;;;;;20.63;18.63;;;31.80;20.50;;;;;;5010847;28;20018;-67
2021/11/24 11:31:08;;;;;;;30.45;27.20;;;31.80;20.50;;;;;;5042060;28;20029;-67
2021/11/24 11:33:39;;;;;;;20.30;17.38;;;32.00;20.50;;;;;;5033818;28;20128;-67
2021/11/24 11:36:09;;;;;;;14.10;12.70;;;32.20;20.20;;;;;;5027825;28;20025;-68
2021/11/24 11:38:38;;;;;;;;;;;32.40;19.80;;;;;;5032020;28;20112;-68
2021/11/24 11:41:05;;;;;;;22.92;20.48;;;32.40;19.50;;;;;;5045358;28;19908;-67
2021/11/24 11:43:31;;;;;;;18.30;16.48;;;32.40;19.50;;;;;;5030015;28;20509;-66
2021/11/24 11:45:58;;;;;;;20.33;18.38;;;32.50;19.40;;;;;;5035962;28;20064;-66
2021/11/24 11:48:32;;;;;;;18.35;16.52;;;32.60;19.40;;;;;;5037304;28;20026;-66
2021/11/24 11:51:03;;;;;;;24.20;21.95;;;32.70;19.40;;;;;;5035519;28;20023;-66
2021/11/24 11:54:00;;;;;;;31.42;28.40;;;32.90;19.30;;;;;;5032507;28;20057;-68
2021/11/24 11:56:30;;;;;;;32.20;29.05;;;33.00;18.70;;;;;;5052503;28;20036;-67
2021/11/24 11:58:59;;;;;;;31.60;28.60;;;32.80;18.50;;;;;;5062622;28;20040;-66
2021/11/24 12:01:29;;;;;;;47.00;42.20;;;32.60;19.50;;;;;;5048383;28;20044;-67
2021/11/24 12:04:07;;;;;;;55.17;49.92;;;32.40;18.80;;;;;;5051737;28;20036;-67
2021/11/24 12:06:46;;;;;;;32.42;29.52;;;32.60;19.00;;;;;;5051445;28;20036;-67
2021/11/24 12:09:28;;;;;;;8.90;7.60;;;32.80;18.90;;;;;;5049077;28;20029;-67
2021/11/24 12:11:59;;;;;;;8.48;7.45;;;33.10;18.50;;;;;;5051070;28;20108;-67
2021/11/24 12:14:49;;;;;;;37.63;34.15;;;33.20;18.50;;;;;;5051082;28;20045;-67
2021/11/24 12:17:30;;;;;;;10.35;9.25;;;33.40;18.60;;;;;;5052841;28;20039;-67
2021/11/24 12:20:11;;;;;;;9.20;6.90;;;33.70;18.30;;;;;;5036669;28;20099;-68
2021/11/24 12:22:55;;;;;;;40.25;34.10;;;33.90;18.10;;;;;;5034022;28;20025;-68
2021/11/24 12:25:23;;;;;;;8.05;6.80;;;34.00;18.00;;;;;;5052206;28;20045;-67
2021/11/24 12:27:58;;;;;;;8.95;8.05;;;34.10;17.80;;;;;;5054367;28;20025;-67
2021/11/24 12:34:22;;;;;;;8.38;7.22;;;33.60;18.10;;;;;;4910879;29;20200;-66
2021/11/24 12:36:47;;;;;;;9.52;7.25;;;30.60;20.00;;;;;;4902589;29;20110;-67
2021/11/24 12:39:13;;;;;;;9.98;7.45;;;27.60;22.10;;;;;;4908751;29;20416;-68
2021/11/24 12:41:41;;;;;;;14.40;8.48;;;25.70;23.70;;;;;;4911964;29;20027;-67
2021/11/24 12:44:10;;;;;;;13.32;11.52;;;24.40;25.30;;;;;;4911054;29;20048;-66
2021/11/24 12:46:39;;;;;;;11.90;10.50;;;23.40;26.80;;;;;;4907739;29;20029;-67
2021/11/24 12:49:24;;;;;;;12.80;8.80;;;22.60;27.70;;;;;;4970302;22;22074;-65
2021/11/24 12:51:54;;;;;;;10.43;7.82;;;22.00;28.80;;;;;;5004906;28;20046;-67
2021/11/24 12:54:57;;;;;;;9.82;8.07;;;21.60;29.70;;;;;;5234007;23;20021;-65
2021/11/24 12:57:27;;;;;;;12.15;10.23;;;21.70;29.40;;;;;;4986054;28;20042;-67
2021/11/24 12:59:53;;;;;;;11.60;8.93;;;23.70;27.30;;;;;;4989697;28;20022;-67
2021/11/24 13:02:19;;;;;;;10.07;8.00;;;26.50;25.00;;;;;;4987713;28;20043;-67
2021/11/24 13:04:48;;;;;;;12.50;8.70;;;28.20;23.40;;;;;;4983794;28;20136;-67
2021/11/24 13:07:21;;;;;;;10.38;8.82;;;29.20;22.50;;;;;;4984833;28;20048;-67
2021/11/24 13:09:49;;;;;;;10.32;7.75;;;29.90;21.90;;;;;;4981766;28;20019;-68
2021/11/24 13:12:23;;;;;;;9.68;7.88;;;30.20;21.40;;;;;;4977531;28;20034;-67
2021/11/24 13:14:51;;;;;;;10.43;7.97;;;30.50;21.30;;;;;;4977071;28;20050;-68
2021/11/24 13:17:20;;;;;;;9.68;8.07;;;30.80;21.10;;;;;;4982823;28;20031;-67
2021/11/24 13:19:53;;;;;;;8.95;7.45;;;30.90;21.50;;;;;;4989267;28;20500;-67
2021/11/24 13:22:58;;;;;;;9.65;7.32;;;31.00;20.70;;;;;;4977857;28;20022;-68
2021/11/24 13:25:30;;;;;;;9.13;7.65;;;31.00;20.40;;;;;;4949812;29;20031;-67
2021/11/24 13:28:00;;;;;;;8.90;7.25;;;31.10;20.70;;;;;;4949202;29;20031;-67
2021/11/24 13:30:28;;;;;;;;;;;31.20;20.70;;;;;;4950317;29;20051;-67
2021/11/24 13:33:04;;;;;;;8.13;7.05;;;31.20;20.50;;;;;;4950027;29;20439;-67
2021/11/24 13:35:33;;;;;;;8.30;7.18;;;31.20;20.40;;;;;;4943129;28;20046;-67
2021/11/24 13:37:59;;;;;;;12.15;10.95;;;31.20;20.20;;;;;;4938064;29;20043;-67
2021/11/24 13:40:46;;;;;;;9.75;7.88;;;31.20;20.30;;;;;;4949331;29;20035;-67
2021/11/24 13:43:14;;;;;;;10.20;8.68;;;31.10;20.60;;;;;;4942587;29;20046;-68
2021/11/24 13:45:42;;;;;;;12.35;11.15;;;31.10;20.50;;;;;;4950529;29;20038;-68
2021/11/24 13:48:20;;;;;;;34.65;31.65;;;30.90;20.50;;;;;;4948050;29;20117;-68
2021/11/24 13:51:00;;;;;;;10.05;8.52;;;30.80;20.20;;;;;;4946177;28;20047;-68
2021/11/24 13:53:33;;;;;;;8.70;6.78;;;30.60;20.40;;;;;;4940433;28;20462;-68
2021/11/24 13:56:20;;;;;;;10.10;7.97;;;30.40;20.50;;;;;;4962755;28;20166;-66
2021/11/24 13:58:59;;;;;;;18.40;16.60;;;30.30;20.70;;;;;;4982827;28;20505;-66
2021/11/24 14:01:32;;;;;;;55.38;50.20;;;30.30;20.90;;;;;;4972731;28;20102;-66
2021/11/24 14:04:04;;;;;;;8.45;7.32;;;30.20;20.70;;;;;;4975424;28;20069;-66
2021/11/24 14:06:42;;;;;;;9.13;8.18;;;30.10;20.80;;;;;;4976579;28;20405;-66
2021/11/24 14:09:32;;;;;;;9.88;7.80;;;29.90;20.90;;;;;;4978573;28;20027;-66
2021/11/24 14:12:06;;;;;;;14.10;10.68;;;29.70;21.10;;;;;;4957969;28;20027;-66
2021/11/24 14:14:52;;;;;;;10.38;9.27;;;29.40;21.40;;;;;;4963083;28;20636;-65
2021/11/24 14:17:31;;;;;;;9.98;8.45;;;27.70;22.30;;;;;;4967998;28;20050;-66
2021/11/24 14:20:01;;;;;;;12.02;9.18;;;25.00;24.50;;;;;;4968137;28;20582;-65
2021/11/24 14:22:42;;;;;;;11.57;9.70;;;23.40;26.60;;;;;;4967328;28;20037;-65
2021/11/24 14:40:40;;;;;;;13.48;10.73;;;23.60;27.00;;;;;;4401914;28;20077;-65
2021/11/24 14:43:09;;;;;;;15.65;11.98;;;23.40;26.90;;;;;;5002398;28;20072;-65
2021/11/24 14:45:37;;;;;;;11.55;8.73;;;22.20;27.80;;;;;;5005280;28;20030;-65
2021/11/24 14:48:05;;;;;;;12.60;8.90;;;21.20;29.70;;;;;;5006922;28;20851;-64
2021/11/24 14:50:33;;;;;;;11.30;10.05;;;20.50;30.70;;;;;;4996583;28;20023;-64
2021/11/24 14:53:00;;;;;;;18.33;16.02;;;19.70;32.00;;;;;;4995479;28;20501;-64
2021/11/24 14:55:27;;;;;;;14.07;10.40;;;18.90;33.50;;;;;;4992859;28;20041;-64
2021/11/24 14:57:55;;;;;;;14.48;10.93;;;18.00;35.30;;;;;;4994509;28;20507;-64
2021/11/24 15:00:23;;;;;;;13.95;11.25;;;17.30;37.00;;;;;;4990553;28;20380;-64
2021/11/24 15:02:49;;;;;;;12.85;9.98;;;16.70;38.80;;;;;;5003649;28;20455;-65
2021/11/24 15:05:17;;;;;;;14.07;10.05;;;16.20;40.00;;;;;;4995194;28;20625;-65
2021/11/24 15:07:44;;;;;;;14.80;11.00;;;15.90;40.90;;;;;;4994328;28;20034;-65
2021/11/24 15:10:12;;;;;;;12.23;8.52;;;15.70;41.30;;;;;;4993965;28;20492;-64
2021/11/24 15:12:39;;;;;;;14.85;11.27;;;15.80;41.60;;;;;;4991170;28;20034;-67
2021/11/24 15:15:05;;;;;;;23.23;16.05;;;15.80;41.80;;;;;;5007826;28;20041;-67
2021/11/24 15:17:31;;;;;;;65.18;54.28;;;15.70;42.10;;;;;;4999411;28;20031;-67
2021/11/24 15:19:59;;;;;;;49.28;38.72;;;15.60;42.50;;;;;;4998286;28;20025;-67
2021/11/24 15:22:26;;;;;;;100.78;77.60;;;15.40;42.90;;;;;;4980337;28;20046;-67
2021/11/24 16:42:17;;;;;;;17.38;8.85;;;10.90;53.10;;;;;;4295429;23;20058;-67
2021/11/24 16:44:43;;;;;;;16.73;9.18;;;10.80;53.20;;;;;;5000617;28;20049;-68
2021/11/24 16:47:10;;;;;;;15.98;9.65;;;10.60;53.20;;;;;;5013188;28;20076;-67
2021/11/24 16:49:40;;;;;;;17.65;9.68;;;10.40;53.50;;;;;;5013915;28;20072;-67
2021/11/24 16:52:07;;;;;;;16.40;9.82;;;10.30;54.00;;;;;;5007608;28;20029;-67
2021/11/24 16:54:34;;;;;;;16.10;9.50;;;10.20;54.40;;;;;;5007868;28;20092;-67
2021/11/24 16:57:01;;;;;;;15.95;10.45;;;10.10;54.80;;;;;;5006440;28;20023;-67
2021/11/24 16:59:29;;;;;;;16.98;9.90;;;10.00;55.10;;;;;;4996775;28;20545;-67
2021/11/24 17:01:55;;;;;;;22.15;12.40;;;9.90;55.40;;;;;;5011634;28;20065;-67
2021/11/24 17:04:21;;;;;;;18.45;11.15;;;9.90;55.50;;;;;;5008386;28;20033;-67
2021/11/24 17:06:48;;;;;;;18.20;10.57;;;9.80;55.40;;;;;;5006410;28;20038;-67
2021/11/24 17:09:14;;;;;;;18.38;10.35;;;9.70;55.50;;;;;;5006840;28;20026;-67
2021/11/24 17:11:41;;;;;;;16.33;10.25;;;9.60;55.60;;;;;;5009289;28;20057;-67
2021/11/24 17:14:08;;;;;;;17.77;10.40;;;9.40;55.70;;;;;;4998821;28;20037;-67
2021/11/24 17:16:34;;;;;;;17.08;10.40;;;9.40;55.90;;;;;;4994769;28;20124;-68
2021/11/24 17:19:02;;;;;;;18.13;10.48;;;9.30;56.10;;;;;;5007842;28;20030;-67
2021/11/24 17:21:31;;;;;;;20.55;11.30;;;9.20;56.30;;;;;;5006912;28;20049;-67
2021/11/24 17:23:57;;;;;;;18.75;9.77;;;9.10;56.60;;;;;;5005118;28;20041;-67
2021/11/24 17:26:26;;;;;;;19.38;10.48;;;9.10;57.10;;;;;;4998787;28;20422;-68
2021/11/24 17:28:53;;;;;;;16.52;10.55;;;9.00;57.20;;;;;;5010651;28;20037;-67
2021/11/24 17:31:25;;;;;;;19.00;10.98;;;9.00;57.50;;;;;;5007527;28;20136;-68
2021/11/24 17:33:52;;;;;;;18.63;10.48;;;8.90;57.60;;;;;;5008370;28;20052;-68
2021/11/24 17:36:19;;;;;;;16.77;10.30;;;8.80;57.60;;;;;;5006134;28;20033;-67
2021/11/24 17:38:45;;;;;;;19.13;10.77;;;8.80;57.70;;;;;;4988439;28;20084;-67
2021/11/24 17:41:11;;;;;;;17.05;10.48;;;8.70;57.80;;;;;;4999997;28;20046;-68
2021/11/24 17:43:38;;;;;;;19.55;10.70;;;8.70;58.10;;;;;;4988383;28;20076;-67
2021/11/24 17:46:05;;;;;;;18.30;11.18;;;8.60;58.50;;;;;;5005564;28;20439;-68
2021/11/24 17:48:33;;;;;;;22.38;11.65;;;8.60;58.90;;;;;;5005729;28;20034;-68
2021/11/24 17:50:59;;;;;;;24.85;14.27;;;8.60;59.10;;;;;;4984189;28;20034;-68
2021/11/24 17:53:26;;;;;;;32.78;19.10;;;8.50;59.00;;;;;;4997743;28;20514;-68
2021/11/24 17:55:56;;;;;;;38.08;20.45;;;8.40;59.10;;;;;;5009639;28;20030;-68
2021/11/24 17:58:22;;;;;;;45.17;24.30;;;8.40;59.20;;;;;;4989184;28;20044;-68
2021/11/24 18:00:49;;;;;;;22.65;13.20;;;8.40;59.40;;;;;;4995650;28;20049;-67
2021/11/24 18:03:16;;;;;;;24.35;14.45;;;8.30;59.50;;;;;;5003469;28;20030;-68
2021/11/24 18:05:43;;;;;;;19.92;10.82;;;8.20;59.80;;;;;;5004904;28;20392;-68
2021/11/24 18:08:10;;;;;;;20.05;11.50;;;8.20;59.80;;;;;;5004318;28;20112;-68
2021/11/24 18:10:36;;;;;;;17.33;10.75;;;8.10;59.80;;;;;;5007378;28;20105;-66
2021/11/24 18:13:02;;;;;;;21.75;11.55;;;8.10;59.90;;;;;;5004579;28;20109;-66
2021/11/24 18:15:28;;;;;;;21.05;12.00;;;8.00;59.90;;;;;;5010150;28;20645;-67
2021/11/24 18:17:54;;;;;;;18.67;10.82;;;8.00;60.10;;;;;;5007351;28;20021;-66
2021/11/24 18:20:22;;;;;;;17.60;11.10;;;7.90;60.30;;;;;;4997817;28;20104;-67
2021/11/24 18:22:48;;;;;;;20.40;10.77;;;7.80;60.40;;;;;;5007784;28;20110;-67
2021/11/24 18:25:16;;;;;;;21.33;10.93;;;7.80;60.30;;;;;;5008447;28;20034;-67
2021/11/24 18:27:42;;;;;;;19.02;11.05;;;7.70;60.40;;;;;;5008528;28;20045;-66
2021/11/24 18:30:09;;;;;;;18.05;10.80;;;7.60;60.40;;;;;;5006532;28;20033;-66
2021/11/24 18:32:35;;;;;;;17.88;11.60;;;7.60;60.40;;;;;;5010128;28;20472;-67
2021/11/24 18:35:02;;;;;;;17.10;10.77;;;7.50;60.70;;;;;;5010137;28;20483;-67
2021/11/24 18:37:28;;;;;;;21.90;11.65;;;7.50;60.80;;;;;;5010397;28;20029;-66
2021/11/24 18:39:57;;;;;;;19.73;11.02;;;7.40;61.10;;;;;;5006340;28;20032;-66
2021/11/24 18:42:23;;;;;;;18.83;11.02;;;7.30;61.30;;;;;;5011877;28;20146;-67
2021/11/24 18:44:49;;;;;;;24.05;11.18;;;7.20;61.50;;;;;;5003730;28;20362;-67
2021/11/24 18:47:15;;;;;;;20.50;10.63;;;7.10;61.60;;;;;;5007956;28;20087;-67
2021/11/24 18:49:41;;;;;;;20.27;12.32;;;7.10;61.50;;;;;;5010829;28;20030;-67
2021/11/24 18:52:06;;;;;;;19.77;12.10;;;7.00;61.30;;;;;;5009690;28;20030;-67
2021/11/24 18:54:35;;;;;;;24.55;13.00;;;6.80;61.80;;;;;;5009594;28;20042;-66
2021/11/24 18:57:02;;;;;;;18.98;11.60;;;6.80;62.30;;;;;;5010718;28;20109;-66
2021/11/24 18:59:27;;;;;;;20.48;12.15;;;6.70;62.40;;;;;;5009563;28;20050;-66
2021/11/24 19:01:53;;;;;;;21.52;12.68;;;6.70;62.60;;;;;;5007047;28;20026;-66
2021/11/24 19:04:19;;;;;;;20.98;11.30;;;6.60;62.60;;;;;;5009585;28;20026;-66
2021/11/24 19:06:50;;;;;;;20.42;11.35;;;6.60;62.60;;;;;;5004262;28;20085;-67
2021/11/24 19:09:16;;;;;;;21.37;12.10;;;6.60;62.50;;;;;;5000909;28;20061;-66
2021/11/24 19:11:42;;;;;;;19.70;11.30;;;6.50;63.10;;;;;;5004563;28;20087;-67
2021/11/24 19:14:09;;;;;;;22.15;12.65;;;6.40;63.20;;;;;;4992126;28;20034;-66
2021/11/24 19:16:35;;;;;;;24.30;13.55;;;6.40;63.30;;;;;;5004953;28;20081;-67
2021/11/24 19:19:01;;;;;;;25.15;14.77;;;6.40;63.50;;;;;;5007907;28;20034;-68
2021/11/24 19:21:27;;;;;;;23.75;13.60;;;6.40;63.80;;;;;;5003835;28;20373;-68
2021/11/24 19:23:54;;;;;;;24.50;13.20;;;6.40;64.00;;;;;;5004595;28;20030;-67
2021/11/24 19:26:20;;;;;;;21.27;12.90;;;6.40;63.90;;;;;;5002269;28;20026;-67
2021/11/24 19:28:46;;;;;;;31.60;19.25;;;6.40;63.80;;;;;;4997719;28;20042;-68
2021/11/24 19:31:13;;;;;;;35.28;20.65;;;6.40;64.00;;;;;;5008322;28;20027;-67
2021/11/24 19:33:39;;;;;;;25.88;16.52;;;6.40;64.30;;;;;;5002575;28;20041;-67
2021/11/24 19:36:05;;;;;;;29.05;17.55;;;6.40;64.50;;;;;;5006105;28;20025;-67
2021/11/24 19:38:31;;;;;;;28.08;16.58;;;6.40;64.50;;;;;;5008335;28;20522;-67
2021/11/24 19:40:58;;;;;;;25.98;15.82;;;6.40;64.60;;;;;;5004956;28;20092;-67
2021/11/24 19:43:25;;;;;;;27.65;15.88;;;6.30;64.50;;;;;;5009749;28;20109;-67
2021/11/24 19:45:51;;;;;;;28.80;15.00;;;6.30;64.60;;;;;;5005460;28;20535;-67
2021/11/24 19:48:18;;;;;;;24.83;15.25;;;6.30;64.80;;;;;;5007663;28;20519;-67
2021/11/24 19:50:44;;;;;;;27.95;17.63;;;6.30;64.90;;;;;;5001430;28;20019;-67
2021/11/24 19:53:11;;;;;;;25.65;15.60;;;6.30;65.00;;;;;;4999188;28;20030;-67
2021/11/24 19:55:38;;;;;;;27.90;16.42;;;6.30;65.30;;;;;;5004315;28;20048;-67
2021/11/24 19:58:05;;;;;;;26.33;16.38;;;6.30;65.30;;;;;;5006322;28;20065;-67
2021/11/24 20:00:31;;;;;;;25.58;16.73;;;6.40;65.30;;;;;;5005760;28;20055;-67
2021/11/24 20:02:58;;;;;;;29.00;17.55;;;6.40;65.30;;;;;;5003373;28;20030;-67
2021/11/24 20:05:25;;;;;;;25.58;15.60;;;6.40;65.40;;;;;;4995153;28;20053;-67
2021/11/24 20:07:51;;;;;;;28.30;15.95;;;6.40;65.40;;;;;;5006376;28;20490;-67
2021/11/24 20:10:20;;;;;;;27.35;15.60;;;6.30;65.30;;;;;;5006597;28;20041;-67
2021/11/24 20:12:47;;;;;;;26.92;15.65;;;6.30;65.30;;;;;;5008551;28;20450;-67
2021/11/24 20:15:19;;;;;;;24.55;13.88;;;6.20;65.30;;;;;;5003237;28;20405;-67
2021/11/24 20:17:45;;;;;;;22.58;13.85;;;6.20;65.40;;;;;;4998499;28;20041;-67
2021/11/24 20:20:12;;;;;;;22.77;13.57;;;6.10;65.60;;;;;;5007417;28;20026;-65
2021/11/24 20:22:41;;;;;;;22.63;14.18;;;6.10;65.80;;;;;;4999325;28;20591;-64
2021/11/24 20:25:08;;;;;;;26.73;15.40;;;6.00;65.80;;;;;;5009774;28;20038;-66
2021/11/24 20:27:36;;;;;;;25.33;15.43;;;6.00;65.70;;;;;;5001583;28;20023;-67
2021/11/24 20:30:04;;;;;;;24.30;14.93;;;5.90;65.70;;;;;;5003719;28;20030;-66
2021/11/24 20:32:30;;;;;;;25.60;15.38;;;5.80;65.70;;;;;;5009681;28;20045;-65
2021/11/24 20:34:56;;;;;;;24.30;14.13;;;5.70;65.70;;;;;;5002028;28;20033;-66
2021/11/24 20:37:22;;;;;;;22.90;14.48;;;5.70;65.80;;;;;;5025691;28;20048;-66
2021/11/24 20:39:48;;;;;;;25.50;13.95;;;5.60;66.00;;;;;;5007210;28;20058;-66
2021/11/24 20:42:15;;;;;;;26.00;14.88;;;5.60;66.00;;;;;;5007738;28;20515;-66
2021/11/24 20:44:41;;;;;;;23.05;13.40;;;5.50;65.90;;;;;;5024602;28;20029;-66
2021/11/24 20:47:07;;;;;;;24.10;14.43;;;5.50;65.80;;;;;;5017097;28;20456;-66
2021/11/24 20:49:33;;;;;;;25.02;15.15;;;5.40;66.00;;;;;;5012143;28;20148;-66
2021/11/24 20:51:59;;;;;;;23.27;14.93;;;5.40;66.70;;;;;;5015117;28;20029;-66
2021/11/24 20:54:26;;;;;;;30.35;16.90;;;5.40;67.00;;;;;;5014375;28;20041;-66
2021/11/24 20:56:53;;;;;;;29.05;16.80;;;5.30;67.50;;;;;;5011583;28;20038;-66
2021/11/24 20:59:20;;;;;;;28.25;17.83;;;5.20;67.80;;;;;;5020242;28;20037;-66
2021/11/24 21:01:46;;;;;;;29.38;16.55;;;5.10;68.10;;;;;;4997313;28;20045;-66
2021/11/24 21:04:12;;;;;;;31.40;17.63;;;5.10;68.40;;;;;;4999364;28;20556;-66
2021/11/24 21:06:38;;;;;;;37.10;18.98;;;5.10;68.50;;;;;;5009456;28;20506;-66
2021/11/24 21:09:05;;;;;;;35.38;20.40;;;5.10;69.20;;;;;;5011348;28;20033;-66
2021/11/24 21:11:32;;;;;;;35.33;20.88;;;5.00;69.40;;;;;;5011515;28;20036;-66